Terminal Aerodrome Forecast
Issued by NWS Cleveland, OH

Home | Current Version | Previous Version | Graphics & Text | Print | Product List | Glossary On
Versions: 1 2 3 4 5 6 7 8 9 10 11 12 13 14 15 16 17 18 19 20
383
FTUS41 KCLE 281736
TAFCAK
TAF
KCAK 281736Z 2818/2918 16010KT P6SM OVC140
     FM282300 13007KT 5SM -RA BR OVC035
     FM290400 10008KT 5SM -RA BR OVC025
     FM290700 10008KT P6SM OVC015
     FM291500 10008KT P6SM OVC140=

USA.gov is the U.S. government's official web portal to all federal, state and local government web resources and services.